sensor_id;sensor_type;location;lat;lon;timestamp;temperature;humidity
22680;DHT22;11507;44.858;10.374;2024-03-02T00:01:11;10.90;99.90
22680;DHT22;11507;44.858;10.374;2024-03-02T00:03:38;10.90;99.90
22680;DHT22;11507;44.858;10.374;2024-03-02T00:06:05;10.90;99.90
22680;DHT22;11507;44.858;10.374;2024-03-02T00:08:33;10.90;99.90
22680;DHT22;11507;44.858;10.374;2024-03-02T00:11:00;10.90;99.90
22680;DHT22;11507;44.858;10.374;2024-03-02T00:13:27;10.90;99.90
22680;DHT22;11507;44.858;10.374;2024-03-02T00:15:55;10.90;99.90
22680;DHT22;11507;44.858;10.374;2024-03-02T00:18:32;10.80;99.90
22680;DHT22;11507;44.858;10.374;2024-03-02T00:21:00;10.80;99.90
22680;DHT22;11507;44.858;10.374;2024-03-02T00:23:31;10.80;99.90
22680;DHT22;11507;44.858;10.374;2024-03-02T00:25:58;10.80;99.90
22680;DHT22;11507;44.858;10.374;2024-03-02T00:28:34;10.80;99.90
22680;DHT22;11507;44.858;10.374;2024-03-02T00:31:05;10.80;99.90
22680;DHT22;11507;44.858;10.374;2024-03-02T00:33:36;10.80;99.90
22680;DHT22;11507;44.858;10.374;2024-03-02T00:36:04;10.80;99.90
22680;DHT22;11507;44.858;10.374;2024-03-02T00:38:32;10.80;99.90
22680;DHT22;11507;44.858;10.374;2024-03-02T00:41:05;10.80;99.90
22680;DHT22;11507;44.858;10.374;2024-03-02T00:46:18;10.80;99.90
22680;DHT22;11507;44.858;10.374;2024-03-02T00:48:58;10.80;99.90
22680;DHT22;11507;44.858;10.374;2024-03-02T00:51:26;10.80;99.90
22680;DHT22;11507;44.858;10.374;2024-03-02T00:53:55;10.80;99.90
22680;DHT22;11507;44.858;10.374;2024-03-02T00:56:24;10.80;99.90
22680;DHT22;11507;44.858;10.374;2024-03-02T00:58:50;10.80;99.90
22680;DHT22;11507;44.858;10.374;2024-03-02T01:01:18;10.70;99.90
22680;DHT22;11507;44.858;10.374;2024-03-02T01:03:46;10.70;99.90
22680;DHT22;11507;44.858;10.374;2024-03-02T01:06:12;10.80;99.90
22680;DHT22;11507;44.858;10.374;2024-03-02T01:08:39;10.70;99.90
22680;DHT22;11507;44.858;10.374;2024-03-02T01:11:05;10.70;99.90
22680;DHT22;11507;44.858;10.374;2024-03-02T01:13:32;10.70;99.90
22680;DHT22;11507;44.858;10.374;2024-03-02T01:15:58;10.70;99.90
22680;DHT22;11507;44.858;10.374;2024-03-02T01:18:25;10.70;99.90
22680;DHT22;11507;44.858;10.374;2024-03-02T01:20:51;10.70;99.90
22680;DHT22;11507;44.858;10.374;2024-03-02T01:23:19;10.70;99.90
22680;DHT22;11507;44.858;10.374;2024-03-02T01:25:46;10.70;99.90
22680;DHT22;11507;44.858;10.374;2024-03-02T01:28:14;10.70;99.90
22680;DHT22;11507;44.858;10.374;2024-03-02T01:30:41;10.70;99.90
22680;DHT22;11507;44.858;10.374;2024-03-02T01:33:07;10.70;99.90
22680;DHT22;11507;44.858;10.374;2024-03-02T01:35:34;10.70;99.90
22680;DHT22;11507;44.858;10.374;2024-03-02T01:38:04;10.70;99.90
22680;DHT22;11507;44.858;10.374;2024-03-02T01:40:37;10.70;99.90
22680;DHT22;11507;44.858;10.374;2024-03-02T01:43:04;10.60;99.90
22680;DHT22;11507;44.858;10.374;2024-03-02T01:45:31;10.60;99.90
22680;DHT22;11507;44.858;10.374;2024-03-02T01:47:58;10.70;99.90
22680;DHT22;11507;44.858;10.374;2024-03-02T01:50:31;10.70;99.90
22680;DHT22;11507;44.858;10.374;2024-03-02T01:52:57;10.60;99.90
22680;DHT22;11507;44.858;10.374;2024-03-02T01:55:24;10.60;99.90
22680;DHT22;11507;44.858;10.374;2024-03-02T01:57:52;10.60;99.90
22680;DHT22;11507;44.858;10.374;2024-03-02T02:00:19;10.60;99.90
22680;DHT22;11507;44.858;10.374;2024-03-02T02:02:47;10.60;99.90
22680;DHT22;11507;44.858;10.374;2024-03-02T02:05:14;10.60;99.90
22680;DHT22;11507;44.858;10.374;2024-03-02T02:07:42;10.60;99.90
22680;DHT22;11507;44.858;10.374;2024-03-02T02:10:09;10.60;99.90
22680;DHT22;11507;44.858;10.374;2024-03-02T02:12:37;10.60;99.90
22680;DHT22;11507;44.858;10.374;2024-03-02T02:15:07;10.60;99.90
22680;DHT22;11507;44.858;10.374;2024-03-02T02:17:47;10.60;99.90
22680;DHT22;11507;44.858;10.374;2024-03-02T02:20:14;10.60;99.90
22680;DHT22;11507;44.858;10.374;2024-03-02T02:22:40;10.60;99.90
22680;DHT22;11507;44.858;10.374;2024-03-02T02:25:07;10.60;99.90
22680;DHT22;11507;44.858;10.374;2024-03-02T02:27:33;10.60;99.90
22680;DHT22;11507;44.858;10.374;2024-03-02T02:30:00;10.50;99.90
22680;DHT22;11507;44.858;10.374;2024-03-02T02:32:27;10.60;99.90
22680;DHT22;11507;44.858;10.374;2024-03-02T02:34:53;10.50;99.90
22680;DHT22;11507;44.858;10.374;2024-03-02T02:37:19;10.50;99.90
22680;DHT22;11507;44.858;10.374;2024-03-02T02:39:46;10.50;99.90
22680;DHT22;11507;44.858;10.374;2024-03-02T02:42:13;10.50;99.90
22680;DHT22;11507;44.858;10.374;2024-03-02T02:44:40;10.50;99.90
22680;DHT22;11507;44.858;10.374;2024-03-02T02:47:07;10.50;99.90
22680;DHT22;11507;44.858;10.374;2024-03-02T02:49:33;10.50;99.90
22680;DHT22;11507;44.858;10.374;2024-03-02T02:52:00;10.40;99.90
22680;DHT22;11507;44.858;10.374;2024-03-02T02:54:27;10.40;99.90
22680;DHT22;11507;44.858;10.374;2024-03-02T02:56:54;10.40;99.90
22680;DHT22;11507;44.858;10.374;2024-03-02T02:59:20;10.40;99.90
22680;DHT22;11507;44.858;10.374;2024-03-02T03:01:46;10.40;99.90
22680;DHT22;11507;44.858;10.374;2024-03-02T03:04:13;10.40;99.90
22680;DHT22;11507;44.858;10.374;2024-03-02T03:06:40;10.40;99.90
22680;DHT22;11507;44.858;10.374;2024-03-02T03:09:06;10.40;99.90
22680;DHT22;11507;44.858;10.374;2024-03-02T03:11:33;10.40;99.90
22680;DHT22;11507;44.858;10.374;2024-03-02T03:13:59;10.40;99.90
22680;DHT22;11507;44.858;10.374;2024-03-02T03:16:27;10.40;99.90
22680;DHT22;11507;44.858;10.374;2024-03-02T03:18:53;10.40;99.90
22680;DHT22;11507;44.858;10.374;2024-03-02T03:21:20;10.40;99.90
22680;DHT22;11507;44.858;10.374;2024-03-02T03:23:47;10.40;99.90
22680;DHT22;11507;44.858;10.374;2024-03-02T03:26:13;10.40;99.90
22680;DHT22;11507;44.858;10.374;2024-03-02T03:28:40;10.30;99.90
22680;DHT22;11507;44.858;10.374;2024-03-02T03:31:06;10.30;99.90
22680;DHT22;11507;44.858;10.374;2024-03-02T03:33:33;10.40;99.90
22680;DHT22;11507;44.858;10.374;2024-03-02T03:36:00;10.30;99.90
22680;DHT22;11507;44.858;10.374;2024-03-02T03:38:29;10.30;99.90
22680;DHT22;11507;44.858;10.374;2024-03-02T03:40:56;10.30;99.90
22680;DHT22;11507;44.858;10.374;2024-03-02T03:43:23;10.30;99.90
22680;DHT22;11507;44.858;10.374;2024-03-02T03:45:49;10.30;99.90
22680;DHT22;11507;44.858;10.374;2024-03-02T03:48:16;10.30;99.90
22680;DHT22;11507;44.858;10.374;2024-03-02T03:50:43;10.30;99.90
22680;DHT22;11507;44.858;10.374;2024-03-02T03:53:09;10.30;99.90
22680;DHT22;11507;44.858;10.374;2024-03-02T03:55:36;10.30;99.90
22680;DHT22;11507;44.858;10.374;2024-03-02T03:58:03;10.30;99.90
22680;DHT22;11507;44.858;10.374;2024-03-02T04:00:33;10.30;99.90
22680;DHT22;11507;44.858;10.374;2024-03-02T04:03:00;10.30;99.90
22680;DHT22;11507;44.858;10.374;2024-03-02T04:05:26;10.30;99.90
22680;DHT22;11507;44.858;10.374;2024-03-02T04:07:53;10.30;99.90
22680;DHT22;11507;44.858;10.374;2024-03-02T04:10:20;10.20;99.90
22680;DHT22;11507;44.858;10.374;2024-03-02T04:12:47;10.30;99.90
22680;DHT22;11507;44.858;10.374;2024-03-02T04:15:13;10.30;99.90
22680;DHT22;11507;44.858;10.374;2024-03-02T04:17:40;10.20;99.90
22680;DHT22;11507;44.858;10.374;2024-03-02T04:20:06;10.20;99.90
22680;DHT22;11507;44.858;10.374;2024-03-02T04:22:34;10.30;99.90
22680;DHT22;11507;44.858;10.374;2024-03-02T04:25:01;10.30;99.90
22680;DHT22;11507;44.858;10.374;2024-03-02T04:27:31;10.20;99.90
22680;DHT22;11507;44.858;10.374;2024-03-02T04:30:00;10.20;99.90
22680;DHT22;11507;44.858;10.374;2024-03-02T04:32:27;10.20;99.90
22680;DHT22;11507;44.858;10.374;2024-03-02T04:34:53;10.20;99.90
22680;DHT22;11507;44.858;10.374;2024-03-02T04:37:20;10.20;99.90
22680;DHT22;11507;44.858;10.374;2024-03-02T04:39:46;10.30;99.90
22680;DHT22;11507;44.858;10.374;2024-03-02T04:42:13;10.20;99.90
22680;DHT22;11507;44.858;10.374;2024-03-02T04:44:39;10.20;99.90
22680;DHT22;11507;44.858;10.374;2024-03-02T04:47:05;10.20;99.90
22680;DHT22;11507;44.858;10.374;2024-03-02T04:49:32;10.20;99.90
22680;DHT22;11507;44.858;10.374;2024-03-02T04:51:58;10.20;99.90
22680;DHT22;11507;44.858;10.374;2024-03-02T04:54:25;10.20;99.90
22680;DHT22;11507;44.858;10.374;2024-03-02T04:56:52;10.20;99.90
22680;DHT22;11507;44.858;10.374;2024-03-02T04:59:18;10.20;99.90
22680;DHT22;11507;44.858;10.374;2024-03-02T05:01:45;10.30;99.90
22680;DHT22;11507;44.858;10.374;2024-03-02T05:04:13;10.30;99.90
22680;DHT22;11507;44.858;10.374;2024-03-02T05:06:40;10.20;99.90
22680;DHT22;11507;44.858;10.374;2024-03-02T05:09:09;10.20;99.90
22680;DHT22;11507;44.858;10.374;2024-03-02T05:11:36;10.20;99.90
22680;DHT22;11507;44.858;10.374;2024-03-02T05:14:06;10.20;99.90
22680;DHT22;11507;44.858;10.374;2024-03-02T05:16:36;10.20;99.90
22680;DHT22;11507;44.858;10.374;2024-03-02T05:19:07;10.20;99.90
22680;DHT22;11507;44.858;10.374;2024-03-02T05:21:34;10.20;99.90
22680;DHT22;11507;44.858;10.374;2024-03-02T05:24:01;10.20;99.90
22680;DHT22;11507;44.858;10.374;2024-03-02T05:26:27;10.20;99.90
22680;DHT22;11507;44.858;10.374;2024-03-02T05:28:53;10.20;99.90
22680;DHT22;11507;44.858;10.374;2024-03-02T05:31:20;10.20;99.90
22680;DHT22;11507;44.858;10.374;2024-03-02T05:33:46;10.20;99.90
22680;DHT22;11507;44.858;10.374;2024-03-02T05:36:13;10.20;99.90
22680;DHT22;11507;44.858;10.374;2024-03-02T05:38:39;10.20;99.90
22680;DHT22;11507;44.858;10.374;2024-03-02T05:41:06;10.20;99.90
22680;DHT22;11507;44.858;10.374;2024-03-02T05:43:32;10.20;99.90
22680;DHT22;11507;44.858;10.374;2024-03-02T05:45:58;10.20;99.90
22680;DHT22;11507;44.858;10.374;2024-03-02T05:48:25;10.20;99.90
22680;DHT22;11507;44.858;10.374;2024-03-02T05:50:51;10.20;99.90
22680;DHT22;11507;44.858;10.374;2024-03-02T05:53:18;10.20;99.90
22680;DHT22;11507;44.858;10.374;2024-03-02T05:55:44;10.20;99.90
22680;DHT22;11507;44.858;10.374;2024-03-02T05:58:11;10.20;99.90
22680;DHT22;11507;44.858;10.374;2024-03-02T06:00:51;10.20;99.90
22680;DHT22;11507;44.858;10.374;2024-03-02T06:03:18;10.20;99.90
22680;DHT22;11507;44.858;10.374;2024-03-02T06:05:44;10.20;99.90
22680;DHT22;11507;44.858;10.374;2024-03-02T06:08:11;10.10;99.90
22680;DHT22;11507;44.858;10.374;2024-03-02T06:10:37;10.20;99.90
22680;DHT22;11507;44.858;10.374;2024-03-02T06:13:03;10.10;99.90
22680;DHT22;11507;44.858;10.374;2024-03-02T06:15:30;10.20;99.90
22680;DHT22;11507;44.858;10.374;2024-03-02T06:17:56;10.10;99.90
22680;DHT22;11507;44.858;10.374;2024-03-02T06:20:22;10.10;99.90
22680;DHT22;11507;44.858;10.374;2024-03-02T06:22:49;10.20;99.90
22680;DHT22;11507;44.858;10.374;2024-03-02T06:25:15;10.20;99.90
22680;DHT22;11507;44.858;10.374;2024-03-02T06:27:42;10.20;99.90
22680;DHT22;11507;44.858;10.374;2024-03-02T06:30:09;10.20;99.90
22680;DHT22;11507;44.858;10.374;2024-03-02T06:32:35;10.20;99.90
22680;DHT22;11507;44.858;10.374;2024-03-02T06:35:01;10.20;99.90
22680;DHT22;11507;44.858;10.374;2024-03-02T06:37:30;10.20;99.90
22680;DHT22;11507;44.858;10.374;2024-03-02T06:39:56;10.20;99.90
22680;DHT22;11507;44.858;10.374;2024-03-02T06:42:23;10.20;99.90
22680;DHT22;11507;44.858;10.374;2024-03-02T06:44:50;10.20;99.90
22680;DHT22;11507;44.858;10.374;2024-03-02T06:47:16;10.20;99.90
22680;DHT22;11507;44.858;10.374;2024-03-02T06:49:42;10.20;99.90
22680;DHT22;11507;44.858;10.374;2024-03-02T06:52:09;10.20;99.90
22680;DHT22;11507;44.858;10.374;2024-03-02T06:54:36;10.20;99.90
22680;DHT22;11507;44.858;10.374;2024-03-02T06:57:03;10.30;99.90
22680;DHT22;11507;44.858;10.374;2024-03-02T06:59:29;10.30;99.90
22680;DHT22;11507;44.858;10.374;2024-03-02T07:01:56;10.30;99.90
22680;DHT22;11507;44.858;10.374;2024-03-02T07:04:23;10.30;99.90
22680;DHT22;11507;44.858;10.374;2024-03-02T07:06:49;10.30;99.90
22680;DHT22;11507;44.858;10.374;2024-03-02T07:09:15;10.30;99.90
22680;DHT22;11507;44.858;10.374;2024-03-02T07:11:42;10.30;99.90
22680;DHT22;11507;44.858;10.374;2024-03-02T07:14:08;10.40;99.90
22680;DHT22;11507;44.858;10.374;2024-03-02T07:16:37;10.40;99.90
22680;DHT22;11507;44.858;10.374;2024-03-02T07:19:06;10.40;99.90
22680;DHT22;11507;44.858;10.374;2024-03-02T07:21:33;10.40;99.90
22680;DHT22;11507;44.858;10.374;2024-03-02T07:23:59;10.50;99.90
22680;DHT22;11507;44.858;10.374;2024-03-02T07:26:30;10.50;99.90
22680;DHT22;11507;44.858;10.374;2024-03-02T07:28:57;10.50;99.90
22680;DHT22;11507;44.858;10.374;2024-03-02T07:31:23;10.60;99.90
22680;DHT22;11507;44.858;10.374;2024-03-02T07:33:50;10.60;99.90
22680;DHT22;11507;44.858;10.374;2024-03-02T07:36:16;10.60;99.90
22680;DHT22;11507;44.858;10.374;2024-03-02T07:38:43;10.60;99.90
22680;DHT22;11507;44.858;10.374;2024-03-02T07:41:10;10.60;99.90
22680;DHT22;11507;44.858;10.374;2024-03-02T07:43:37;10.60;99.90
22680;DHT22;11507;44.858;10.374;2024-03-02T07:46:03;10.70;99.90
22680;DHT22;11507;44.858;10.374;2024-03-02T07:48:30;10.70;99.90
22680;DHT22;11507;44.858;10.374;2024-03-02T07:50:57;10.70;99.90
22680;DHT22;11507;44.858;10.374;2024-03-02T07:53:23;10.70;99.90
22680;DHT22;11507;44.858;10.374;2024-03-02T07:55:49;10.80;99.90
22680;DHT22;11507;44.858;10.374;2024-03-02T07:58:16;10.80;99.90
22680;DHT22;11507;44.858;10.374;2024-03-02T08:00:44;10.80;99.90
22680;DHT22;11507;44.858;10.374;2024-03-02T08:03:10;10.80;99.90
22680;DHT22;11507;44.858;10.374;2024-03-02T08:05:38;10.90;99.90
22680;DHT22;11507;44.858;10.374;2024-03-02T08:08:05;10.90;99.90
22680;DHT22;11507;44.858;10.374;2024-03-02T08:10:31;10.90;99.90
22680;DHT22;11507;44.858;10.374;2024-03-02T08:12:59;10.80;99.90
22680;DHT22;11507;44.858;10.374;2024-03-02T08:15:25;10.90;99.90
22680;DHT22;11507;44.858;10.374;2024-03-02T08:17:53;10.80;99.90
22680;DHT22;11507;44.858;10.374;2024-03-02T08:20:19;10.90;99.90
22680;DHT22;11507;44.858;10.374;2024-03-02T08:22:46;10.90;99.90
22680;DHT22;11507;44.858;10.374;2024-03-02T08:25:13;10.90;99.90
22680;DHT22;11507;44.858;10.374;2024-03-02T08:27:40;10.90;99.90
22680;DHT22;11507;44.858;10.374;2024-03-02T08:30:07;10.90;99.90
22680;DHT22;11507;44.858;10.374;2024-03-02T08:32:34;10.90;99.90
22680;DHT22;11507;44.858;10.374;2024-03-02T08:35:00;10.90;99.90
22680;DHT22;11507;44.858;10.374;2024-03-02T08:37:27;10.90;99.90
22680;DHT22;11507;44.858;10.374;2024-03-02T08:39:53;10.90;99.90
22680;DHT22;11507;44.858;10.374;2024-03-02T08:42:20;10.90;99.90
22680;DHT22;11507;44.858;10.374;2024-03-02T08:44:46;10.90;99.90
22680;DHT22;11507;44.858;10.374;2024-03-02T08:47:12;10.90;99.90
22680;DHT22;11507;44.858;10.374;2024-03-02T08:49:39;10.90;99.90
22680;DHT22;11507;44.858;10.374;2024-03-02T08:52:05;11.00;99.90
22680;DHT22;11507;44.858;10.374;2024-03-02T08:54:32;11.00;99.90
22680;DHT22;11507;44.858;10.374;2024-03-02T08:57:00;11.00;99.90
22680;DHT22;11507;44.858;10.374;2024-03-02T08:59:26;11.00;99.90
22680;DHT22;11507;44.858;10.374;2024-03-02T09:01:54;11.00;99.90
22680;DHT22;11507;44.858;10.374;2024-03-02T09:04:20;11.00;99.90
22680;DHT22;11507;44.858;10.374;2024-03-02T09:06:46;11.00;99.90
22680;DHT22;11507;44.858;10.374;2024-03-02T09:09:12;11.10;99.90
22680;DHT22;11507;44.858;10.374;2024-03-02T09:11:39;11.10;99.90
22680;DHT22;11507;44.858;10.374;2024-03-02T09:14:05;11.10;99.90
22680;DHT22;11507;44.858;10.374;2024-03-02T09:16:32;11.10;99.90
22680;DHT22;11507;44.858;10.374;2024-03-02T09:18:58;11.20;99.90
22680;DHT22;11507;44.858;10.374;2024-03-02T09:21:24;11.20;99.90
22680;DHT22;11507;44.858;10.374;2024-03-02T09:23:51;11.30;99.90
22680;DHT22;11507;44.858;10.374;2024-03-02T09:26:18;11.30;99.90
22680;DHT22;11507;44.858;10.374;2024-03-02T09:28:46;11.30;99.90
22680;DHT22;11507;44.858;10.374;2024-03-02T09:31:13;11.30;99.90
22680;DHT22;11507;44.858;10.374;2024-03-02T09:33:41;11.30;99.90
22680;DHT22;11507;44.858;10.374;2024-03-02T09:36:21;11.40;99.90
22680;DHT22;11507;44.858;10.374;2024-03-02T09:38:48;11.40;99.90
22680;DHT22;11507;44.858;10.374;2024-03-02T09:41:14;11.40;99.90
22680;DHT22;11507;44.858;10.374;2024-03-02T09:43:41;11.50;99.90
22680;DHT22;11507;44.858;10.374;2024-03-02T09:46:11;11.40;99.90
22680;DHT22;11507;44.858;10.374;2024-03-02T09:48:38;11.40;99.90
22680;DHT22;11507;44.858;10.374;2024-03-02T09:51:05;11.40;99.90
22680;DHT22;11507;44.858;10.374;2024-03-02T09:53:33;11.50;99.90
22680;DHT22;11507;44.858;10.374;2024-03-02T09:56:00;11.60;99.90
22680;DHT22;11507;44.858;10.374;2024-03-02T09:58:27;11.60;99.90
22680;DHT22;11507;44.858;10.374;2024-03-02T10:00:53;11.60;99.90
22680;DHT22;11507;44.858;10.374;2024-03-02T10:03:20;11.60;99.90
22680;DHT22;11507;44.858;10.374;2024-03-02T10:05:47;11.70;99.90
22680;DHT22;11507;44.858;10.374;2024-03-02T10:08:13;11.70;99.90
22680;DHT22;11507;44.858;10.374;2024-03-02T10:10:41;11.70;99.90
22680;DHT22;11507;44.858;10.374;2024-03-02T10:13:12;11.70;99.90
22680;DHT22;11507;44.858;10.374;2024-03-02T10:15:39;11.70;99.90
22680;DHT22;11507;44.858;10.374;2024-03-02T10:18:10;11.70;99.90
22680;DHT22;11507;44.858;10.374;2024-03-02T10:20:38;11.70;99.90
22680;DHT22;11507;44.858;10.374;2024-03-02T10:23:15;11.80;99.90
22680;DHT22;11507;44.858;10.374;2024-03-02T10:25:43;11.70;99.90
22680;DHT22;11507;44.858;10.374;2024-03-02T10:28:10;11.80;99.90
22680;DHT22;11507;44.858;10.374;2024-03-02T10:30:36;11.80;99.90
22680;DHT22;11507;44.858;10.374;2024-03-02T10:33:03;11.80;99.90
22680;DHT22;11507;44.858;10.374;2024-03-02T10:35:32;11.70;99.90
22680;DHT22;11507;44.858;10.374;2024-03-02T10:38:04;11.80;99.90
22680;DHT22;11507;44.858;10.374;2024-03-02T10:40:32;11.80;99.90
22680;DHT22;11507;44.858;10.374;2024-03-02T10:43:00;11.90;99.90
22680;DHT22;11507;44.858;10.374;2024-03-02T10:45:29;11.90;99.90
22680;DHT22;11507;44.858;10.374;2024-03-02T10:47:56;11.90;99.90
22680;DHT22;11507;44.858;10.374;2024-03-02T10:50:24;12.00;99.90
22680;DHT22;11507;44.858;10.374;2024-03-02T10:52:50;12.00;99.90
22680;DHT22;11507;44.858;10.374;2024-03-02T10:55:17;12.10;99.90
22680;DHT22;11507;44.858;10.374;2024-03-02T10:57:54;12.10;99.90
22680;DHT22;11507;44.858;10.374;2024-03-02T11:00:24;12.10;99.90
22680;DHT22;11507;44.858;10.374;2024-03-02T11:03:05;12.20;99.90
22680;DHT22;11507;44.858;10.374;2024-03-02T11:05:36;12.20;99.90
22680;DHT22;11507;44.858;10.374;2024-03-02T11:08:07;12.20;99.90
22680;DHT22;11507;44.858;10.374;2024-03-02T11:13:33;12.20;99.90
22680;DHT22;11507;44.858;10.374;2024-03-02T11:16:09;12.30;99.90
22680;DHT22;11507;44.858;10.374;2024-03-02T11:18:39;12.30;99.90
22680;DHT22;11507;44.858;10.374;2024-03-02T11:21:07;12.40;99.90
22680;DHT22;11507;44.858;10.374;2024-03-02T11:23:34;12.70;99.90
22680;DHT22;11507;44.858;10.374;2024-03-02T11:26:33;12.90;99.90
22680;DHT22;11507;44.858;10.374;2024-03-02T11:29:05;13.10;99.90
22680;DHT22;11507;44.858;10.374;2024-03-02T11:32:04;13.10;99.90
22680;DHT22;11507;44.858;10.374;2024-03-02T11:34:32;13.30;99.90
22680;DHT22;11507;44.858;10.374;2024-03-02T11:37:02;13.40;99.90
22680;DHT22;11507;44.858;10.374;2024-03-02T11:39:29;13.50;99.90
22680;DHT22;11507;44.858;10.374;2024-03-02T11:41:56;13.50;99.90
22680;DHT22;11507;44.858;10.374;2024-03-02T11:44:29;13.60;99.90
22680;DHT22;11507;44.858;10.374;2024-03-02T11:47:02;13.60;99.90
22680;DHT22;11507;44.858;10.374;2024-03-02T11:49:39;13.60;99.90
22680;DHT22;11507;44.858;10.374;2024-03-02T11:52:07;13.50;99.90
22680;DHT22;11507;44.858;10.374;2024-03-02T11:54:34;13.40;99.90
22680;DHT22;11507;44.858;10.374;2024-03-02T11:57:02;13.30;99.90
22680;DHT22;11507;44.858;10.374;2024-03-02T11:59:35;13.30;99.90
22680;DHT22;11507;44.858;10.374;2024-03-02T12:02:02;13.30;99.90
22680;DHT22;11507;44.858;10.374;2024-03-02T12:04:29;13.20;99.90
22680;DHT22;11507;44.858;10.374;2024-03-02T12:07:00;13.30;99.90
22680;DHT22;11507;44.858;10.374;2024-03-02T12:09:30;13.40;99.90
22680;DHT22;11507;44.858;10.374;2024-03-02T12:12:04;13.50;99.90
22680;DHT22;11507;44.858;10.374;2024-03-02T12:14:32;13.70;99.90
22680;DHT22;11507;44.858;10.374;2024-03-02T12:16:59;13.90;99.90
22680;DHT22;11507;44.858;10.374;2024-03-02T12:19:29;14.20;99.90
22680;DHT22;11507;44.858;10.374;2024-03-02T12:21:59;14.40;99.90
22680;DHT22;11507;44.858;10.374;2024-03-02T12:24:29;14.40;99.90
22680;DHT22;11507;44.858;10.374;2024-03-02T12:26:57;14.40;99.90
22680;DHT22;11507;44.858;10.374;2024-03-02T12:29:24;14.20;99.90
22680;DHT22;11507;44.858;10.374;2024-03-02T12:31:51;14.20;99.90
22680;DHT22;11507;44.858;10.374;2024-03-02T12:34:18;14.20;99.90
22680;DHT22;11507;44.858;10.374;2024-03-02T12:36:49;14.10;99.90
22680;DHT22;11507;44.858;10.374;2024-03-02T12:39:20;13.90;99.90
22680;DHT22;11507;44.858;10.374;2024-03-02T12:41:47;13.70;99.90
22680;DHT22;11507;44.858;10.374;2024-03-02T12:44:17;13.60;99.90
22680;DHT22;11507;44.858;10.374;2024-03-02T12:46:44;13.50;99.90
22680;DHT22;11507;44.858;10.374;2024-03-02T12:49:12;13.40;99.90
22680;DHT22;11507;44.858;10.374;2024-03-02T12:51:40;13.40;99.90
22680;DHT22;11507;44.858;10.374;2024-03-02T12:54:10;13.30;99.90
22680;DHT22;11507;44.858;10.374;2024-03-02T12:56:41;13.20;99.90
22680;DHT22;11507;44.858;10.374;2024-03-02T12:59:18;13.20;99.90
22680;DHT22;11507;44.858;10.374;2024-03-02T13:01:55;13.30;99.90
22680;DHT22;11507;44.858;10.374;2024-03-02T13:04:26;13.30;99.90
22680;DHT22;11507;44.858;10.374;2024-03-02T13:06:54;13.40;99.90
22680;DHT22;11507;44.858;10.374;2024-03-02T13:09:23;13.40;99.90
22680;DHT22;11507;44.858;10.374;2024-03-02T13:11:50;13.50;99.90
22680;DHT22;11507;44.858;10.374;2024-03-02T13:14:17;13.60;99.90
22680;DHT22;11507;44.858;10.374;2024-03-02T13:16:44;13.60;99.90
22680;DHT22;11507;44.858;10.374;2024-03-02T13:19:13;13.60;99.90
22680;DHT22;11507;44.858;10.374;2024-03-02T13:21:40;13.70;99.90
22680;DHT22;11507;44.858;10.374;2024-03-02T13:24:06;13.80;99.90
22680;DHT22;11507;44.858;10.374;2024-03-02T13:26:33;14.00;99.90
22680;DHT22;11507;44.858;10.374;2024-03-02T13:28:59;14.40;99.90
22680;DHT22;11507;44.858;10.374;2024-03-02T13:31:26;14.90;99.90
22680;DHT22;11507;44.858;10.374;2024-03-02T13:33:52;15.80;99.90
22680;DHT22;11507;44.858;10.374;2024-03-02T13:36:19;17.90;99.90
22680;DHT22;11507;44.858;10.374;2024-03-02T13:38:45;19.70;99.90
22680;DHT22;11507;44.858;10.374;2024-03-02T13:41:12;20.60;99.90
22680;DHT22;11507;44.858;10.374;2024-03-02T13:43:38;20.50;99.90
22680;DHT22;11507;44.858;10.374;2024-03-02T13:46:05;20.10;99.90
22680;DHT22;11507;44.858;10.374;2024-03-02T13:48:32;19.70;99.90
22680;DHT22;11507;44.858;10.374;2024-03-02T13:50:58;19.20;99.90
22680;DHT22;11507;44.858;10.374;2024-03-02T13:53:25;18.50;99.90
22680;DHT22;11507;44.858;10.374;2024-03-02T13:55:52;18.10;99.90
22680;DHT22;11507;44.858;10.374;2024-03-02T13:58:19;17.70;99.90
22680;DHT22;11507;44.858;10.374;2024-03-02T14:00:47;17.30;99.90
22680;DHT22;11507;44.858;10.374;2024-03-02T14:03:13;16.90;99.90
22680;DHT22;11507;44.858;10.374;2024-03-02T14:05:40;16.60;99.90
22680;DHT22;11507;44.858;10.374;2024-03-02T14:08:07;16.30;99.90
22680;DHT22;11507;44.858;10.374;2024-03-02T14:10:33;16.10;99.90
22680;DHT22;11507;44.858;10.374;2024-03-02T14:13:01;15.90;99.90
22680;DHT22;11507;44.858;10.374;2024-03-02T14:15:27;15.70;99.90
22680;DHT22;11507;44.858;10.374;2024-03-02T14:17:56;15.60;99.90
22680;DHT22;11507;44.858;10.374;2024-03-02T14:20:22;15.50;99.90
22680;DHT22;11507;44.858;10.374;2024-03-02T14:22:49;15.50;99.90
22680;DHT22;11507;44.858;10.374;2024-03-02T14:25:16;15.50;99.90
22680;DHT22;11507;44.858;10.374;2024-03-02T14:27:43;15.40;99.90
22680;DHT22;11507;44.858;10.374;2024-03-02T14:30:10;15.50;99.90
22680;DHT22;11507;44.858;10.374;2024-03-02T14:32:36;15.50;99.90
22680;DHT22;11507;44.858;10.374;2024-03-02T14:35:03;15.50;99.90
22680;DHT22;11507;44.858;10.374;2024-03-02T14:37:29;15.70;99.90
22680;DHT22;11507;44.858;10.374;2024-03-02T14:39:56;17.00;99.90
22680;DHT22;11507;44.858;10.374;2024-03-02T14:42:22;18.50;99.90
22680;DHT22;11507;44.858;10.374;2024-03-02T14:44:49;19.40;99.90
22680;DHT22;11507;44.858;10.374;2024-03-02T14:47:15;19.60;99.90
22680;DHT22;11507;44.858;10.374;2024-03-02T14:49:43;19.70;99.90
22680;DHT22;11507;44.858;10.374;2024-03-02T14:52:09;19.80;99.90
22680;DHT22;11507;44.858;10.374;2024-03-02T14:54:36;19.40;99.90
22680;DHT22;11507;44.858;10.374;2024-03-02T14:57:04;19.00;99.90
22680;DHT22;11507;44.858;10.374;2024-03-02T14:59:30;18.30;99.90
22680;DHT22;11507;44.858;10.374;2024-03-02T15:01:57;17.80;99.90
22680;DHT22;11507;44.858;10.374;2024-03-02T15:04:24;17.20;99.90
22680;DHT22;11507;44.858;10.374;2024-03-02T15:06:50;16.70;99.90
22680;DHT22;11507;44.858;10.374;2024-03-02T15:09:17;16.40;99.90
22680;DHT22;11507;44.858;10.374;2024-03-02T15:11:45;16.20;99.90
22680;DHT22;11507;44.858;10.374;2024-03-02T15:14:12;15.90;99.90
22680;DHT22;11507;44.858;10.374;2024-03-02T15:16:39;15.80;99.90
22680;DHT22;11507;44.858;10.374;2024-03-02T15:19:06;15.70;99.90
22680;DHT22;11507;44.858;10.374;2024-03-02T15:21:32;15.70;99.90
22680;DHT22;11507;44.858;10.374;2024-03-02T15:23:59;15.60;99.90